createdAt,value
2017-11-27T00:01:58.070Z,20.53
2017-11-27T00:04:24.772Z,20.55
2017-11-27T00:06:51.525Z,20.62
2017-11-27T00:09:18.240Z,20.55
2017-11-27T00:11:44.981Z,20.49
2017-11-27T00:14:10.756Z,20.50
2017-11-27T00:16:36.569Z,20.52
2017-11-27T00:19:03.286Z,20.54
2017-11-27T00:21:29.982Z,20.54
2017-11-27T00:23:55.792Z,20.55
2017-11-27T00:26:21.585Z,20.46
2017-11-27T00:28:47.357Z,20.48
2017-11-27T00:31:13.143Z,20.47
2017-11-27T00:33:38.916Z,20.53
2017-11-27T00:36:04.804Z,20.51
2017-11-27T00:38:31.583Z,20.56
2017-11-27T00:40:57.482Z,20.49
2017-11-27T00:43:23.288Z,20.58
2017-11-27T00:45:49.067Z,20.47
2017-11-27T00:48:14.839Z,20.40
2017-11-27T00:50:40.608Z,20.50
2017-11-27T00:53:06.377Z,20.49
2017-11-27T00:55:32.165Z,20.49
2017-11-27T00:57:57.951Z,20.60
2017-11-27T01:00:23.750Z,20.59
2017-11-27T01:02:49.533Z,20.50
2017-11-27T01:05:15.325Z,20.51
2017-11-27T01:07:41.101Z,20.45
2017-11-27T01:10:06.924Z,20.49
2017-11-27T01:12:33.710Z,20.54
2017-11-27T01:14:59.484Z,20.52
2017-11-27T01:17:25.272Z,20.57
2017-11-27T01:19:51.045Z,20.55
2017-11-27T01:22:16.849Z,20.52
2017-11-27T01:24:42.621Z,20.51
2017-11-27T01:27:08.389Z,20.48
2017-11-27T01:29:34.161Z,20.46
2017-11-27T01:31:59.936Z,20.48
2017-11-27T01:34:25.778Z,20.48
2017-11-27T01:36:52.469Z,20.46
2017-11-27T01:39:18.241Z,20.34
2017-11-27T01:41:45.060Z,20.44
2017-11-27T01:44:10.832Z,20.52
2017-11-27T01:46:37.630Z,20.54
2017-11-27T01:49:03.417Z,20.51
2017-11-27T01:51:29.265Z,20.36
2017-11-27T01:53:55.049Z,20.36
2017-11-27T01:56:21.773Z,20.36
2017-11-27T01:58:47.549Z,20.46
2017-11-27T02:01:13.325Z,20.46
2017-11-27T02:03:40.008Z,20.53
2017-11-27T02:06:05.777Z,20.47
2017-11-27T02:08:31.580Z,20.50
2017-11-27T02:10:57.363Z,20.47
2017-11-27T02:13:24.151Z,20.48
2017-11-27T02:15:49.945Z,20.45
2017-11-27T02:18:15.759Z,20.52
2017-11-27T02:20:41.536Z,20.51
2017-11-27T02:23:07.316Z,20.51
2017-11-27T02:25:33.127Z,20.53
2017-11-27T02:27:59.733Z,20.57
2017-11-27T02:30:26.537Z,20.51
2017-11-27T02:32:53.314Z,20.45
2017-11-27T02:35:20.054Z,20.52
2017-11-27T02:37:46.826Z,20.47
2017-11-27T02:40:12.605Z,20.59
2017-11-27T02:42:39.342Z,20.52
2017-11-27T02:45:05.999Z,20.54
2017-11-27T02:47:32.773Z,20.44
2017-11-27T02:49:58.558Z,20.50
2017-11-27T02:52:24.933Z,20.53
2017-11-27T02:54:50.705Z,20.49
2017-11-27T02:57:17.433Z,20.55
2017-11-27T02:59:44.257Z,20.49
2017-11-27T03:02:10.027Z,20.55
2017-11-27T03:04:36.827Z,20.47
2017-11-27T03:07:02.608Z,20.36
2017-11-27T03:09:29.381Z,20.41
2017-11-27T03:11:55.153Z,20.51
2017-11-27T03:14:21.961Z,20.48
2017-11-27T03:16:47.736Z,20.47
2017-11-27T03:19:14.432Z,20.56
2017-11-27T03:21:40.218Z,20.46
2017-11-27T03:24:05.986Z,20.36
2017-11-27T03:26:31.764Z,20.39
2017-11-27T03:28:57.539Z,20.44
2017-11-27T03:31:23.318Z,20.46
2017-11-27T03:33:49.993Z,20.50
2017-11-27T03:36:17.645Z,20.56
2017-11-27T03:38:43.449Z,20.41
2017-11-27T03:41:09.217Z,20.43
2017-11-27T03:43:35.171Z,20.37
2017-11-27T03:46:00.962Z,20.39
2017-11-27T03:48:27.761Z,20.47
2017-11-27T03:50:53.528Z,20.55
2017-11-27T03:53:19.302Z,20.54
2017-11-27T03:55:45.096Z,20.46
2017-11-27T03:58:10.934Z,20.43
2017-11-27T04:00:37.552Z,20.42
2017-11-27T04:03:03.329Z,20.46
2017-11-27T04:05:29.109Z,20.51
2017-11-27T04:07:55.819Z,20.48
2017-11-27T04:10:21.601Z,20.43
2017-11-27T04:12:48.307Z,20.34
2017-11-27T04:15:14.109Z,20.35
2017-11-27T04:17:39.909Z,20.42
2017-11-27T04:20:05.704Z,20.40
2017-11-27T04:22:32.385Z,20.43
2017-11-27T04:24:58.209Z,20.44
2017-11-27T04:27:24.950Z,20.56
2017-11-27T04:29:50.726Z,20.57
2017-11-27T04:32:16.505Z,20.42
2017-11-27T04:34:42.284Z,20.48
2017-11-27T04:37:08.057Z,20.51
2017-11-27T04:39:33.856Z,20.47
2017-11-27T04:42:00.625Z,20.46
2017-11-27T04:44:33.396Z,20.52
2017-11-27T04:46:59.186Z,20.50
2017-11-27T04:49:25.005Z,20.46
2017-11-27T04:51:50.789Z,20.42
2017-11-27T04:54:16.568Z,20.41
2017-11-27T04:56:42.345Z,20.44
2017-11-27T04:59:08.121Z,20.43
2017-11-27T05:01:33.898Z,20.40
2017-11-27T05:03:59.684Z,20.39
2017-11-27T05:06:25.457Z,20.45
2017-11-27T05:08:51.228Z,20.34
2017-11-27T05:11:17.045Z,20.37
2017-11-27T05:13:42.839Z,20.34
2017-11-27T05:16:09.440Z,20.45
2017-11-27T05:18:35.218Z,20.47
2017-11-27T05:21:01.032Z,20.46
2017-11-27T05:23:26.807Z,20.52
2017-11-27T05:25:52.583Z,20.34
2017-11-27T05:28:19.307Z,20.34
2017-11-27T05:30:45.090Z,20.35
2017-11-27T05:33:10.904Z,20.37
2017-11-27T05:35:37.548Z,20.44
2017-11-27T05:38:03.364Z,20.38
2017-11-27T05:40:29.958Z,20.40
2017-11-27T05:42:55.749Z,20.33
2017-11-27T05:45:22.353Z,20.25
2017-11-27T05:47:48.144Z,20.25
2017-11-27T05:52:46.540Z,20.22
2017-11-27T05:55:12.368Z,20.30
2017-11-27T05:57:38.992Z,20.37
2017-11-27T06:00:04.784Z,20.41
2017-11-27T06:02:31.373Z,20.44
2017-11-27T06:04:57.161Z,20.46
2017-11-27T06:07:22.953Z,20.39
2017-11-27T06:09:49.661Z,20.44
2017-11-27T06:12:15.437Z,20.40
2017-11-27T06:14:42.039Z,20.49
2017-11-27T06:17:07.866Z,20.45
2017-11-27T06:19:34.445Z,20.52
2017-11-27T06:22:00.290Z,20.47
2017-11-27T06:24:26.086Z,20.36
2017-11-27T06:26:51.925Z,20.38
2017-11-27T06:29:18.713Z,20.45
2017-11-27T06:31:44.528Z,20.47
2017-11-27T06:34:11.096Z,20.50
2017-11-27T06:36:36.925Z,20.44
2017-11-27T06:39:02.758Z,20.40
2017-11-27T06:41:28.564Z,20.33
2017-11-27T06:43:54.428Z,20.38
2017-11-27T06:46:21.146Z,20.38
2017-11-27T06:48:46.979Z,20.40
2017-11-27T06:51:13.772Z,20.43
2017-11-27T06:53:39.552Z,20.37
2017-11-27T06:56:05.972Z,20.35
2017-11-27T06:58:31.756Z,20.23
2017-11-27T07:00:58.582Z,20.24
2017-11-27T07:03:24.374Z,20.30
2017-11-27T07:05:51.129Z,20.33
2017-11-27T07:08:17.955Z,20.34
2017-11-27T07:10:43.730Z,20.34
2017-11-27T07:13:10.509Z,20.34
2017-11-27T07:15:37.263Z,20.28
2017-11-27T07:18:03.409Z,20.29
2017-11-27T07:20:30.101Z,20.37
2017-11-27T07:22:55.937Z,20.36
2017-11-27T07:25:21.710Z,20.49
2017-11-27T07:27:48.368Z,20.45
2017-11-27T07:30:14.151Z,20.40
2017-11-27T07:32:40.910Z,20.26
2017-11-27T07:35:06.693Z,20.25
2017-11-27T07:37:39.469Z,20.32
2017-11-27T07:40:05.277Z,20.27
2017-11-27T07:42:31.852Z,20.29
2017-11-27T07:44:57.633Z,20.33
2017-11-27T07:47:24.447Z,20.37
2017-11-27T07:49:50.222Z,20.28
2017-11-27T07:52:16.247Z,20.24
2017-11-27T07:54:42.836Z,20.25
2017-11-27T07:57:08.706Z,20.32
2017-11-27T07:59:34.475Z,20.36
2017-11-27T08:02:00.253Z,20.39
2017-11-27T08:04:26.034Z,20.36
2017-11-27T08:06:51.816Z,20.21
2017-11-27T08:09:17.587Z,20.34
2017-11-27T08:11:43.373Z,20.32
2017-11-27T08:14:09.153Z,20.31
2017-11-27T08:16:34.928Z,20.43
2017-11-27T08:19:00.709Z,20.44
2017-11-27T08:21:26.540Z,20.42
2017-11-27T08:23:53.208Z,20.33
2017-11-27T08:26:18.985Z,20.28
2017-11-27T08:28:44.778Z,20.20
2017-11-27T08:31:10.561Z,20.16
2017-11-27T08:33:36.340Z,20.21
2017-11-27T08:36:02.139Z,20.29
2017-11-27T08:38:27.917Z,20.26
2017-11-27T08:40:53.714Z,20.21
2017-11-27T08:43:19.495Z,20.30
2017-11-27T08:45:46.850Z,20.33
2017-11-27T08:48:12.700Z,20.45
2017-11-27T08:50:38.484Z,20.46
2017-11-27T08:53:04.270Z,20.40
2017-11-27T08:55:30.913Z,20.31
2017-11-27T08:57:56.700Z,20.31
2017-11-27T09:00:22.482Z,20.30
2017-11-27T09:02:48.834Z,20.26
2017-11-27T09:05:15.522Z,20.23
2017-11-27T09:07:41.601Z,20.25
2017-11-27T09:10:07.405Z,20.39
2017-11-27T09:12:33.617Z,20.37
2017-11-27T09:14:59.408Z,20.45
2017-11-27T09:17:25.209Z,20.50
2017-11-27T09:19:51.097Z,20.54
2017-11-27T09:22:16.997Z,20.49
2017-11-27T09:24:42.833Z,20.46
2017-11-27T09:27:09.126Z,20.36
2017-11-27T09:29:34.973Z,20.46
2017-11-27T09:32:00.785Z,20.50
2017-11-27T09:34:26.612Z,20.47
2017-11-27T09:36:52.425Z,20.51
2017-11-27T09:39:18.205Z,20.49
2017-11-27T09:41:44.000Z,20.52
2017-11-27T09:44:10.752Z,20.38
2017-11-27T09:46:37.299Z,20.44
2017-11-27T09:49:04.073Z,20.47
2017-11-27T09:51:29.883Z,20.50
2017-11-27T09:53:56.731Z,20.46
2017-11-27T09:56:22.520Z,20.33
2017-11-27T09:58:48.353Z,20.35
2017-11-27T10:01:14.941Z,20.45
2017-11-27T10:03:40.742Z,20.46
2017-11-27T10:06:07.506Z,20.52
2017-11-27T10:08:33.284Z,20.48
2017-11-27T10:11:00.112Z,20.48
2017-11-27T10:13:25.931Z,20.44
2017-11-27T10:15:51.710Z,20.42
2017-11-27T10:18:17.556Z,20.49
2017-11-27T10:20:43.386Z,20.46
2017-11-27T10:23:09.177Z,20.54
2017-11-27T10:25:35.017Z,20.51
2017-11-27T10:28:01.684Z,20.54
2017-11-27T10:30:27.534Z,20.48
2017-11-27T10:32:54.137Z,20.45
2017-11-27T10:35:19.934Z,20.46
2017-11-27T10:37:46.665Z,20.48
2017-11-27T10:40:12.475Z,20.52
2017-11-27T10:42:39.197Z,20.52
2017-11-27T10:45:05.956Z,20.49
2017-11-27T10:47:32.746Z,20.44
2017-11-27T10:49:59.512Z,20.47
2017-11-27T10:52:26.269Z,20.52
2017-11-27T10:54:52.042Z,20.52
2017-11-27T10:57:17.860Z,20.53
2017-11-27T10:59:43.641Z,20.58
2017-11-27T11:02:09.445Z,20.50
2017-11-27T11:04:35.260Z,20.46
2017-11-27T11:07:01.041Z,20.49
2017-11-27T11:09:26.867Z,20.50
2017-11-27T11:11:52.646Z,20.52
2017-11-27T11:14:18.430Z,20.58
2017-11-27T11:16:45.142Z,20.57
2017-11-27T11:19:11.011Z,20.48
2017-11-27T11:21:36.784Z,20.55
2017-11-27T11:24:03.408Z,20.60
2017-11-27T11:26:29.221Z,20.63
2017-11-27T11:28:55.817Z,20.56
2017-11-27T11:31:21.597Z,20.53
2017-11-27T11:33:48.252Z,20.56
2017-11-27T11:36:14.036Z,20.63
2017-11-27T11:38:40.876Z,20.63
2017-11-27T11:41:07.660Z,20.54
2017-11-27T11:43:34.518Z,20.60
2017-11-27T11:46:00.292Z,20.57
2017-11-27T11:48:26.105Z,20.64
2017-11-27T11:50:51.891Z,20.63
2017-11-27T11:53:17.678Z,20.59
2017-11-27T11:55:44.467Z,20.63
2017-11-27T11:58:11.201Z,20.61
2017-11-27T12:00:37.664Z,20.61
2017-11-27T12:03:03.486Z,20.61
2017-11-27T12:05:30.305Z,20.56
2017-11-27T12:07:57.064Z,20.62
2017-11-27T12:10:23.801Z,20.54
2017-11-27T12:12:49.580Z,20.65
2017-11-27T12:15:16.313Z,20.63
2017-11-27T12:17:42.089Z,20.58
2017-11-27T12:20:08.928Z,20.52
2017-11-27T12:22:34.717Z,20.52
2017-11-27T12:25:01.469Z,20.55
2017-11-27T12:27:27.245Z,20.51
2017-11-27T12:29:53.984Z,20.62
2017-11-27T12:32:19.764Z,20.56
2017-11-27T12:34:45.541Z,20.59
2017-11-27T12:37:12.138Z,20.52
2017-11-27T12:39:37.934Z,20.50
2017-11-27T12:42:03.736Z,20.48
2017-11-27T12:44:29.521Z,20.52
2017-11-27T12:46:55.296Z,20.56
2017-11-27T12:49:21.070Z,20.60
2017-11-27T12:51:46.857Z,20.50
2017-11-27T12:54:12.648Z,20.53
2017-11-27T12:56:38.426Z,20.51
2017-11-27T12:59:04.234Z,20.58
2017-11-27T13:01:30.023Z,20.54
2017-11-27T13:03:55.845Z,20.52
2017-11-27T13:06:21.629Z,20.52
2017-11-27T13:08:47.404Z,20.58
2017-11-27T13:11:13.217Z,20.66
2017-11-27T13:13:38.992Z,20.59
2017-11-27T13:16:04.768Z,20.56
2017-11-27T13:18:30.560Z,20.58
2017-11-27T13:20:56.345Z,20.56
2017-11-27T13:23:22.275Z,20.58
2017-11-27T13:25:48.048Z,20.58
2017-11-27T13:28:13.828Z,20.57
2017-11-27T13:30:39.618Z,20.56
2017-11-27T13:33:05.398Z,20.52
2017-11-27T13:35:31.188Z,20.63
2017-11-27T13:37:57.858Z,20.64
2017-11-27T13:40:23.662Z,20.58
2017-11-27T13:42:50.445Z,20.56
2017-11-27T13:45:17.170Z,20.61
2017-11-27T13:47:43.968Z,20.64
2017-11-27T13:50:10.714Z,20.65
2017-11-27T13:52:36.523Z,20.65
2017-11-27T13:55:02.301Z,20.67
2017-11-27T13:57:28.109Z,20.61
2017-11-27T13:59:54.885Z,20.63
2017-11-27T14:02:20.675Z,20.61
2017-11-27T14:04:46.516Z,20.59
2017-11-27T14:07:12.307Z,20.64
2017-11-27T14:09:38.129Z,20.57
2017-11-27T14:12:03.925Z,20.54
2017-11-27T14:14:29.703Z,20.59
2017-11-27T14:16:56.469Z,20.54
2017-11-27T14:19:23.279Z,20.55
2017-11-27T14:21:50.004Z,20.55
2017-11-27T14:24:16.750Z,20.54
2017-11-27T14:26:43.545Z,20.45
2017-11-27T14:29:10.149Z,20.63
2017-11-27T14:31:35.964Z,20.53
2017-11-27T14:34:02.572Z,20.57
2017-11-27T14:36:29.285Z,20.58
2017-11-27T14:38:56.015Z,20.56
2017-11-27T14:41:22.784Z,20.56
2017-11-27T14:43:49.553Z,20.61
2017-11-27T14:46:15.358Z,20.61
2017-11-27T14:48:42.152Z,20.45
2017-11-27T14:51:08.953Z,20.42
2017-11-27T14:53:35.759Z,20.45
2017-11-27T14:56:02.500Z,20.50
2017-11-27T14:58:29.274Z,20.54
2017-11-27T15:00:55.994Z,20.46
2017-11-27T15:03:22.764Z,20.33
2017-11-27T15:05:48.550Z,20.43
2017-11-27T15:08:15.336Z,20.49
2017-11-27T15:10:41.139Z,20.44
2017-11-27T15:13:06.925Z,20.35
2017-11-27T15:15:33.563Z,20.37
2017-11-27T15:18:00.390Z,20.50
2017-11-27T15:20:27.290Z,20.53
2017-11-27T15:22:53.087Z,20.57
2017-11-27T15:25:18.867Z,20.54
2017-11-27T15:27:44.680Z,20.50
2017-11-27T15:30:11.476Z,20.55
2017-11-27T15:32:37.342Z,20.50
2017-11-27T15:35:03.178Z,20.46
2017-11-27T15:37:30.011Z,20.52
2017-11-27T15:39:55.857Z,20.54
2017-11-27T15:42:21.685Z,20.55
2017-11-27T15:44:48.382Z,20.55
2017-11-27T15:47:15.044Z,20.52
2017-11-27T15:49:40.897Z,20.43
2017-11-27T15:52:07.722Z,20.45
2017-11-27T15:54:33.576Z,20.44
2017-11-27T15:57:00.326Z,20.54
2017-11-27T15:59:26.144Z,20.54
2017-11-27T16:01:52.818Z,20.49
2017-11-27T16:04:19.544Z,20.53
2017-11-27T16:06:45.354Z,20.47
2017-11-27T16:09:11.978Z,20.37
2017-11-27T16:11:37.762Z,20.49
2017-11-27T16:14:04.525Z,20.49
2017-11-27T16:16:30.309Z,20.51
2017-11-27T16:18:57.045Z,20.54
2017-11-27T16:21:23.878Z,20.59
2017-11-27T16:23:50.695Z,20.47
2017-11-27T16:26:16.517Z,20.50
2017-11-27T16:28:43.114Z,20.51
2017-11-27T16:31:08.901Z,20.55
2017-11-27T16:33:35.678Z,20.49
2017-11-27T16:36:01.460Z,20.51
2017-11-27T16:38:27.246Z,19.51
2017-11-27T16:40:53.036Z,19.05
2017-11-27T16:43:18.856Z,19.14
2017-11-27T16:45:44.648Z,19.06
2017-11-27T16:48:10.476Z,18.87
2017-11-27T16:50:36.298Z,18.91
2017-11-27T16:53:02.097Z,18.88
2017-11-27T16:55:27.908Z,18.96
2017-11-27T16:57:53.748Z,18.94
2017-11-27T17:00:19.614Z,18.85
2017-11-27T17:02:45.409Z,18.67
2017-11-27T17:05:12.261Z,18.61
2017-11-27T17:07:38.058Z,18.53
2017-11-27T17:10:03.848Z,18.46
2017-11-27T17:12:29.646Z,18.67
2017-11-27T17:14:55.432Z,18.66
2017-11-27T17:17:21.222Z,18.37
2017-11-27T17:19:47.010Z,18.45
2017-11-27T17:22:12.844Z,18.74
2017-11-27T17:24:39.673Z,19.06
2017-11-27T17:27:06.311Z,19.40
2017-11-27T17:29:32.123Z,19.57
2017-11-27T17:31:59.023Z,19.79
2017-11-27T17:34:25.071Z,19.79
2017-11-27T17:36:51.144Z,19.84
2017-11-27T17:39:16.966Z,19.94
2017-11-27T17:41:42.833Z,19.97
2017-11-27T17:44:08.617Z,19.93
2017-11-27T17:46:34.666Z,20.03
2017-11-27T17:49:00.596Z,20.00
2017-11-27T17:51:26.438Z,20.03
2017-11-27T17:53:52.285Z,19.99
2017-11-27T17:56:18.073Z,20.01
2017-11-27T17:58:43.884Z,20.02
2017-11-27T18:01:09.705Z,19.99
2017-11-27T18:03:35.493Z,20.09
2017-11-27T18:06:01.282Z,20.04
2017-11-27T18:08:27.116Z,20.15
2017-11-27T18:10:52.913Z,20.19
2017-11-27T18:13:18.760Z,20.27
2017-11-27T18:15:44.567Z,20.25
2017-11-27T18:18:10.441Z,20.30
2017-11-27T18:20:36.253Z,20.18
2017-11-27T18:23:03.131Z,20.18
2017-11-27T18:25:28.925Z,20.10
2017-11-27T18:27:54.717Z,20.08
2017-11-27T18:30:20.553Z,20.24
2017-11-27T18:32:47.319Z,20.25
2017-11-27T18:35:14.580Z,20.17
2017-11-27T18:37:41.059Z,20.25
2017-11-27T18:40:06.911Z,20.23
2017-11-27T18:42:32.837Z,20.32
2017-11-27T18:44:58.618Z,20.35
2017-11-27T18:47:25.991Z,20.25
2017-11-27T18:49:51.780Z,20.23
2017-11-27T18:52:17.754Z,20.39
2017-11-27T18:54:44.542Z,20.36
2017-11-27T18:57:10.330Z,20.39
2017-11-27T18:59:36.144Z,20.32
2017-11-27T19:02:01.970Z,20.29
2017-11-27T19:04:27.857Z,20.25
2017-11-27T19:06:53.640Z,20.25
2017-11-27T19:09:19.432Z,20.27
2017-11-27T19:11:46.164Z,20.33
2017-11-27T19:14:11.986Z,20.32
2017-11-27T19:16:37.916Z,20.33
2017-11-27T19:19:03.759Z,20.44
2017-11-27T19:21:29.655Z,20.52
2017-11-27T19:23:55.451Z,20.46
2017-11-27T19:26:21.245Z,20.48
2017-11-27T19:28:47.865Z,20.51
2017-11-27T19:31:13.664Z,20.59
2017-11-27T19:33:39.522Z,20.56
2017-11-27T19:36:05.334Z,20.58
2017-11-27T19:38:31.157Z,20.53
2017-11-27T19:40:57.049Z,20.51
2017-11-27T19:43:23.957Z,20.59
2017-11-27T19:45:50.637Z,20.48
2017-11-27T19:48:16.433Z,20.53
2017-11-27T19:50:42.484Z,20.51
2017-11-27T19:53:08.282Z,20.52
2017-11-27T19:55:34.192Z,20.53
2017-11-27T19:58:00.625Z,20.44
2017-11-27T20:00:26.496Z,20.43
2017-11-27T20:02:53.117Z,20.48
2017-11-27T20:05:18.911Z,20.46
2017-11-27T20:07:44.761Z,20.49
2017-11-27T20:10:10.640Z,20.53
2017-11-27T20:12:36.456Z,20.49
2017-11-27T20:15:02.304Z,20.46
2017-11-27T20:17:28.133Z,20.46
2017-11-27T20:19:53.962Z,20.45
2017-11-27T20:22:19.763Z,20.48
2017-11-27T20:24:45.681Z,20.46
2017-11-27T20:27:11.524Z,20.51
2017-11-27T20:29:37.408Z,20.44
2017-11-27T20:32:03.214Z,20.46
2017-11-27T20:34:29.029Z,20.38
2017-11-27T20:36:54.903Z,20.42
2017-11-27T20:39:20.736Z,20.50
2017-11-27T20:41:46.670Z,20.46
2017-11-27T20:44:13.370Z,20.46
2017-11-27T20:46:39.221Z,20.45
2017-11-27T20:49:05.049Z,20.49
2017-11-27T20:51:30.953Z,20.50
2017-11-27T20:53:56.786Z,20.47
2017-11-27T20:56:22.643Z,20.43
2017-11-27T20:58:48.507Z,20.51
2017-11-27T21:01:14.307Z,20.51
2017-11-27T21:03:40.114Z,20.45
2017-11-27T21:06:05.921Z,20.51
2017-11-27T21:08:33.133Z,20.54
2017-11-27T21:10:58.909Z,20.47
2017-11-27T21:13:24.709Z,20.41
2017-11-27T21:15:50.522Z,20.44
2017-11-27T21:18:16.318Z,20.45
2017-11-27T21:20:42.109Z,20.45
2017-11-27T21:23:07.950Z,20.57
2017-11-27T21:25:33.766Z,20.49
2017-11-27T21:28:00.472Z,20.47
2017-11-27T21:30:26.275Z,20.49
2017-11-27T21:32:52.108Z,20.43
2017-11-27T21:35:17.906Z,20.42
2017-11-27T21:37:43.728Z,20.46
2017-11-27T21:40:09.558Z,20.51
2017-11-27T21:42:35.345Z,20.47
2017-11-27T21:45:01.165Z,20.45
2017-11-27T21:47:27.032Z,20.53
2017-11-27T21:49:52.846Z,20.51
2017-11-27T21:52:19.585Z,20.58
2017-11-27T21:54:45.390Z,20.57
2017-11-27T21:57:11.233Z,20.53
2017-11-27T21:59:37.904Z,20.51
2017-11-27T22:02:04.726Z,20.54
2017-11-27T22:04:31.494Z,20.54
2017-11-27T22:06:58.300Z,20.54
2017-11-27T22:09:24.137Z,20.55
2017-11-27T22:11:49.929Z,20.58
2017-11-27T22:14:16.670Z,20.65
2017-11-27T22:16:42.509Z,20.61
2017-11-27T22:19:08.349Z,20.50
2017-11-27T22:21:34.168Z,20.56
2017-11-27T22:24:00.781Z,20.62
2017-11-27T22:26:26.612Z,20.51
2017-11-27T22:28:52.462Z,20.55
2017-11-27T22:31:18.253Z,20.56
2017-11-27T22:33:44.049Z,20.55
2017-11-27T22:36:09.839Z,20.53
2017-11-27T22:38:35.640Z,20.52
2017-11-27T22:41:02.526Z,20.49
2017-11-27T22:43:28.309Z,20.51
2017-11-27T22:45:54.125Z,20.54
2017-11-27T22:48:19.920Z,20.54
2017-11-27T22:50:45.754Z,20.52
2017-11-27T22:53:12.417Z,20.49
2017-11-27T22:55:38.228Z,20.44
2017-11-27T22:58:04.017Z,20.54
2017-11-27T23:00:29.799Z,20.51
2017-11-27T23:02:55.644Z,20.47
2017-11-27T23:05:21.422Z,20.55
2017-11-27T23:07:47.217Z,20.46
2017-11-27T23:10:13.004Z,20.49
2017-11-27T23:12:38.851Z,20.46
2017-11-27T23:15:04.653Z,20.48
2017-11-27T23:17:30.455Z,20.49
2017-11-27T23:19:56.245Z,20.51
2017-11-27T23:22:22.043Z,20.55
2017-11-27T23:24:49.948Z,20.49
2017-11-27T23:27:15.736Z,20.48
2017-11-27T23:29:41.526Z,20.45
2017-11-27T23:32:07.350Z,20.43
2017-11-27T23:34:33.205Z,20.52
2017-11-27T23:36:59.040Z,20.47
2017-11-27T23:39:24.845Z,20.56
2017-11-27T23:41:50.626Z,20.48
2017-11-27T23:44:16.429Z,20.50
2017-11-27T23:46:43.157Z,20.44
2017-11-27T23:49:08.961Z,20.36
2017-11-27T23:51:34.747Z,20.48
2017-11-27T23:54:00.524Z,20.45
2017-11-27T23:56:26.357Z,20.45
2017-11-27T23:58:52.160Z,20.50
